createdAt,value
2022-11-16T00:00:18.889Z,0.00
2022-11-16T00:01:18.872Z,0.00
2022-11-16T00:02:18.883Z,0.00
2022-11-16T00:03:18.852Z,0.00
2022-11-16T00:04:18.838Z,0.00
2022-11-16T00:05:18.824Z,0.00
2022-11-16T00:06:18.800Z,0.00
2022-11-16T00:07:18.865Z,0.00
2022-11-16T00:08:18.811Z,0.00
2022-11-16T00:09:18.778Z,0.00
2022-11-16T00:10:18.758Z,0.00
2022-11-16T00:11:18.758Z,0.00
2022-11-16T00:12:18.736Z,0.00
2022-11-16T00:13:18.749Z,0.00
2022-11-16T00:14:18.711Z,0.00
2022-11-16T00:15:18.702Z,0.00
2022-11-16T00:16:18.707Z,0.00
2022-11-16T00:17:18.689Z,0.00
2022-11-16T00:18:18.696Z,0.00
2022-11-16T00:19:18.653Z,0.00
2022-11-16T00:20:18.642Z,0.00
2022-11-16T00:21:18.653Z,0.00
2022-11-16T00:22:18.639Z,0.00
2022-11-16T00:23:18.625Z,0.00
2022-11-16T00:24:18.611Z,0.00
2022-11-16T00:25:18.603Z,0.00
2022-11-16T00:26:18.578Z,0.00
2022-11-16T00:27:18.580Z,0.00
2022-11-16T00:28:18.579Z,0.00
2022-11-16T00:29:18.541Z,0.00
2022-11-16T00:30:18.531Z,0.00
2022-11-16T00:31:18.520Z,0.00
2022-11-16T00:32:18.541Z,0.00
2022-11-16T00:33:18.508Z,0.00
2022-11-16T00:34:18.511Z,0.00
2022-11-16T00:35:18.494Z,0.00
2022-11-16T00:36:18.482Z,0.00
2022-11-16T00:37:18.463Z,0.00
2022-11-16T00:38:18.464Z,0.00
2022-11-16T00:39:18.431Z,0.00
2022-11-16T00:40:18.426Z,0.00
2022-11-16T00:41:18.407Z,0.00
2022-11-16T00:42:18.410Z,0.00
2022-11-16T00:43:18.403Z,0.00
2022-11-16T00:44:18.380Z,0.00
2022-11-16T00:45:18.379Z,0.00
2022-11-16T00:46:18.351Z,0.00
2022-11-16T00:47:18.339Z,0.00
2022-11-16T00:48:18.373Z,0.00
2022-11-16T00:49:18.326Z,0.00
2022-11-16T00:50:18.320Z,0.00
2022-11-16T00:51:18.295Z,0.00
2022-11-16T00:52:18.287Z,0.00
2022-11-16T00:53:18.312Z,0.00
2022-11-16T00:54:18.262Z,0.00
2022-11-16T00:55:18.274Z,0.00
2022-11-16T00:56:18.252Z,0.00
2022-11-16T00:57:18.241Z,0.00
2022-11-16T00:58:18.245Z,0.00
2022-11-16T00:59:18.205Z,0.00
2022-11-16T01:00:18.223Z,0.00
2022-11-16T01:01:18.255Z,0.00
2022-11-16T01:02:18.187Z,0.00
2022-11-16T01:03:18.185Z,0.00
2022-11-16T01:04:18.180Z,0.00
2022-11-16T01:05:18.151Z,0.00
2022-11-16T01:06:18.130Z,0.00
2022-11-16T01:07:18.212Z,0.00
2022-11-16T01:08:18.137Z,0.00
2022-11-16T01:09:18.093Z,0.00
2022-11-16T01:10:18.081Z,0.00
2022-11-16T01:11:18.076Z,0.00
2022-11-16T01:12:18.085Z,0.00
2022-11-16T01:13:18.061Z,0.00
2022-11-16T01:14:18.039Z,0.00
2022-11-16T01:15:18.041Z,0.00
2022-11-16T01:16:18.016Z,0.00
2022-11-16T01:17:18.008Z,0.00
2022-11-16T01:18:18.014Z,0.00
2022-11-16T01:19:17.993Z,0.00
2022-11-16T01:20:18.008Z,0.00
2022-11-16T01:21:17.979Z,0.00
2022-11-16T01:22:17.964Z,0.00
2022-11-16T01:23:17.961Z,0.00
2022-11-16T01:24:17.965Z,0.00
2022-11-16T01:25:17.931Z,0.00
2022-11-16T01:26:17.918Z,0.00
2022-11-16T01:27:17.905Z,0.00
2022-11-16T01:28:17.881Z,0.00
2022-11-16T01:29:17.886Z,0.00
2022-11-16T01:30:17.871Z,0.00
2022-11-16T01:31:17.862Z,0.00
2022-11-16T01:32:17.848Z,0.00
2022-11-16T01:33:17.827Z,0.00
2022-11-16T01:34:17.826Z,0.00
2022-11-16T01:35:17.804Z,0.00
2022-11-16T01:36:17.826Z,0.00
2022-11-16T01:37:17.796Z,0.00
2022-11-16T01:38:17.783Z,0.00
2022-11-16T01:39:17.783Z,0.00
2022-11-16T01:40:17.763Z,0.00
2022-11-16T01:41:17.733Z,0.00
2022-11-16T01:42:17.727Z,0.00
2022-11-16T01:43:17.713Z,0.00
2022-11-16T01:44:17.718Z,0.00
2022-11-16T01:45:17.693Z,0.00
2022-11-16T01:46:17.698Z,0.00
2022-11-16T01:47:17.681Z,0.00
2022-11-16T01:48:17.757Z,0.00
2022-11-16T01:49:17.670Z,0.00
2022-11-16T01:50:17.634Z,0.00
2022-11-16T01:51:17.627Z,0.00
2022-11-16T01:52:17.634Z,0.00
2022-11-16T01:53:17.668Z,0.00
2022-11-16T01:54:17.619Z,0.00
2022-11-16T01:55:17.581Z,0.00
2022-11-16T01:56:17.581Z,0.00
2022-11-16T01:57:17.566Z,0.00
2022-11-16T01:58:17.545Z,0.00
2022-11-16T01:59:17.570Z,0.00
2022-11-16T02:00:17.520Z,0.00
2022-11-16T02:01:17.583Z,0.00
2022-11-16T02:02:17.519Z,0.00
2022-11-16T02:03:17.486Z,0.00
2022-11-16T02:04:17.485Z,0.00
2022-11-16T02:05:17.476Z,0.00
2022-11-16T02:06:17.455Z,0.00
2022-11-16T02:07:17.550Z,0.00
2022-11-16T02:08:17.468Z,0.00
2022-11-16T02:09:17.438Z,0.00
2022-11-16T02:10:17.422Z,0.00
2022-11-16T02:11:17.398Z,0.00
2022-11-16T02:12:17.388Z,0.00
2022-11-16T02:13:17.388Z,0.00
2022-11-16T02:14:17.382Z,0.00
2022-11-16T02:15:17.366Z,0.00
2022-11-16T02:16:17.360Z,0.00
2022-11-16T02:17:17.348Z,0.00
2022-11-16T02:18:17.322Z,0.00
2022-11-16T02:19:17.319Z,0.00
2022-11-16T02:20:17.310Z,0.00
2022-11-16T02:21:17.296Z,0.00
2022-11-16T02:22:17.287Z,0.00
2022-11-16T02:23:17.262Z,0.00
2022-11-16T02:24:17.285Z,0.00
2022-11-16T02:25:17.240Z,0.00
2022-11-16T02:26:17.243Z,0.00
2022-11-16T02:27:17.237Z,0.00
2022-11-16T02:28:17.223Z,0.00
2022-11-16T02:29:17.229Z,0.00
2022-11-16T02:30:17.206Z,0.00
2022-11-16T02:31:17.180Z,0.00
2022-11-16T02:32:17.163Z,0.00
2022-11-16T02:33:17.164Z,0.00
2022-11-16T02:34:17.156Z,0.00
2022-11-16T02:35:17.148Z,0.00
2022-11-16T02:36:17.137Z,0.00
2022-11-16T02:37:17.104Z,0.00
2022-11-16T02:38:17.110Z,0.00
2022-11-16T02:39:17.109Z,0.00
2022-11-16T02:40:17.094Z,0.00
2022-11-16T02:41:17.061Z,0.00
2022-11-16T02:42:17.065Z,0.00
2022-11-16T02:43:17.039Z,0.00
2022-11-16T02:44:17.057Z,0.00
2022-11-16T02:45:17.018Z,0.00
2022-11-16T02:46:17.020Z,0.00
2022-11-16T02:47:16.999Z,0.00
2022-11-16T02:48:16.981Z,0.00
2022-11-16T02:49:17.002Z,0.00
2022-11-16T02:50:16.976Z,0.00
2022-11-16T02:51:16.960Z,0.00
2022-11-16T02:52:16.938Z,0.00
2022-11-16T02:53:16.934Z,0.00
2022-11-16T02:54:16.930Z,0.00
2022-11-16T02:55:16.909Z,0.00
2022-11-16T02:56:16.924Z,0.00
2022-11-16T02:57:16.885Z,0.00
2022-11-16T02:58:16.869Z,0.00
2022-11-16T02:59:17.825Z,0.00
2022-11-16T03:00:16.848Z,0.00
2022-11-16T03:01:16.945Z,0.00
2022-11-16T03:02:16.843Z,0.00
2022-11-16T03:03:16.815Z,0.00
2022-11-16T03:04:16.822Z,0.00
2022-11-16T03:05:16.796Z,0.00
2022-11-16T03:06:16.785Z,0.00
2022-11-16T03:07:16.835Z,0.00
2022-11-16T03:08:16.790Z,0.00
2022-11-16T03:09:16.760Z,0.00
2022-11-16T03:10:16.736Z,0.00
2022-11-16T03:11:16.724Z,0.00
2022-11-16T03:12:16.743Z,0.00
2022-11-16T03:13:16.713Z,0.00
2022-11-16T03:14:16.703Z,0.00
2022-11-16T03:15:16.738Z,0.00
2022-11-16T03:16:16.671Z,0.00
2022-11-16T03:17:16.670Z,0.00
2022-11-16T03:18:16.658Z,0.00
2022-11-16T03:19:16.667Z,0.00
2022-11-16T03:20:16.633Z,0.00
2022-11-16T03:21:16.617Z,0.00
2022-11-16T03:22:16.613Z,0.00
2022-11-16T03:23:16.591Z,0.00
2022-11-16T03:24:16.590Z,0.00
2022-11-16T03:25:16.597Z,0.00
2022-11-16T03:26:16.585Z,0.00
2022-11-16T03:27:16.544Z,0.00
2022-11-16T03:28:16.557Z,0.00
2022-11-16T03:29:16.534Z,0.00
2022-11-16T03:30:18.989Z,0.00
2022-11-16T03:31:16.516Z,0.00
2022-11-16T03:32:16.489Z,0.00
2022-11-16T03:33:16.494Z,0.00
2022-11-16T03:34:16.476Z,0.00
2022-11-16T03:35:16.475Z,0.00
2022-11-16T03:36:16.456Z,0.00
2022-11-16T03:37:16.452Z,0.00
2022-11-16T03:38:16.423Z,0.00
2022-11-16T03:39:16.423Z,0.00
2022-11-16T03:40:16.413Z,0.00
2022-11-16T03:41:16.415Z,0.00
2022-11-16T03:42:16.390Z,0.00
2022-11-16T03:43:16.393Z,0.00
2022-11-16T03:44:16.386Z,0.00
2022-11-16T03:45:16.360Z,0.00
2022-11-16T03:46:16.342Z,0.00
2022-11-16T03:47:16.335Z,0.00
2022-11-16T03:48:16.326Z,0.00
2022-11-16T03:49:16.315Z,0.00
2022-11-16T03:50:16.327Z,0.00
2022-11-16T03:51:16.276Z,0.00
2022-11-16T03:52:16.279Z,0.00
2022-11-16T03:53:16.290Z,0.00
2022-11-16T03:54:16.254Z,0.00
2022-11-16T03:55:16.259Z,0.00
2022-11-16T03:56:16.232Z,0.00
2022-11-16T03:57:16.223Z,0.00
2022-11-16T03:58:16.213Z,0.00
2022-11-16T03:59:16.201Z,0.00
2022-11-16T07:14:07.275Z,11.25
2022-11-16T07:15:07.199Z,16.88
2022-11-16T07:16:07.190Z,16.88
2022-11-16T07:17:09.617Z,22.50
2022-11-16T07:18:07.180Z,22.50
2022-11-16T07:19:07.169Z,22.50
2022-11-16T07:20:07.144Z,28.12
2022-11-16T07:21:07.148Z,28.12
2022-11-16T07:22:07.123Z,28.12
2022-11-16T07:23:12.890Z,33.75
2022-11-16T07:24:08.105Z,33.75
2022-11-16T07:25:07.102Z,33.75
2022-11-16T07:26:07.111Z,33.75
2022-11-16T07:27:07.078Z,33.75
2022-11-16T07:28:07.070Z,33.75
2022-11-16T07:29:07.084Z,39.38
2022-11-16T07:30:07.142Z,39.38
2022-11-16T07:31:07.034Z,39.38
2022-11-16T07:32:07.019Z,39.38
2022-11-16T07:33:07.013Z,45.00
2022-11-16T07:34:06.984Z,45.00
2022-11-16T07:35:06.991Z,50.62
2022-11-16T07:36:06.984Z,33.75
2022-11-16T07:37:06.953Z,50.62
2022-11-16T07:38:06.974Z,56.25
2022-11-16T07:39:06.930Z,50.62
2022-11-16T07:40:06.926Z,39.38
2022-11-16T07:41:06.922Z,56.25
2022-11-16T07:42:06.905Z,39.38
2022-11-16T07:43:06.897Z,33.75
2022-11-16T07:44:11.799Z,45.00
2022-11-16T07:45:07.861Z,50.62
2022-11-16T07:47:07.860Z,56.25
2022-11-16T07:48:06.851Z,28.12
2022-11-16T07:49:11.193Z,45.00
2022-11-16T07:50:06.814Z,56.25
2022-11-16T07:51:06.789Z,56.25
2022-11-16T07:52:06.788Z,56.25
2022-11-16T07:53:06.800Z,50.62
2022-11-16T07:54:06.758Z,50.62
2022-11-16T07:55:06.745Z,45.00
2022-11-16T07:56:06.732Z,39.38
2022-11-16T07:57:06.722Z,39.38
2022-11-16T07:58:06.727Z,33.75
2022-11-16T07:59:06.703Z,28.12
2022-11-16T08:00:06.696Z,22.50
2022-11-16T08:01:06.678Z,16.88
2022-11-16T08:02:06.781Z,16.88
2022-11-16T08:03:06.697Z,22.50
2022-11-16T08:04:06.642Z,22.50
2022-11-16T08:05:06.643Z,22.50
2022-11-16T08:06:06.641Z,16.88
2022-11-16T08:07:06.667Z,22.50
2022-11-16T08:08:06.610Z,22.50
2022-11-16T08:09:06.585Z,22.50
2022-11-16T08:10:06.686Z,28.12
2022-11-16T08:11:06.589Z,28.12
2022-11-16T08:12:06.574Z,28.12
2022-11-16T08:13:06.555Z,28.12
2022-11-16T08:14:06.529Z,33.75
2022-11-16T08:15:06.533Z,28.12
2022-11-16T08:16:06.527Z,28.12
2022-11-16T08:17:06.509Z,28.12
2022-11-16T08:18:06.626Z,28.12
2022-11-16T08:19:06.485Z,28.12
2022-11-16T08:20:06.472Z,28.12
2022-11-16T08:21:06.446Z,33.75
2022-11-16T08:22:06.435Z,33.75
2022-11-16T08:23:06.442Z,33.75
2022-11-16T08:24:06.414Z,28.12
2022-11-16T08:25:06.403Z,28.12
2022-11-16T08:26:06.395Z,28.12
2022-11-16T08:27:06.380Z,28.12
2022-11-16T08:28:06.383Z,28.12
2022-11-16T08:29:06.369Z,28.12
2022-11-16T08:30:06.348Z,28.12
2022-11-16T08:31:06.336Z,33.75
2022-11-16T08:32:06.339Z,33.75
2022-11-16T08:33:06.344Z,33.75
2022-11-16T08:34:06.321Z,33.75
2022-11-16T08:35:06.303Z,33.75
2022-11-16T08:36:12.520Z,33.75
2022-11-16T08:37:07.276Z,33.75
2022-11-16T08:38:06.284Z,39.38
2022-11-16T08:39:06.242Z,45.00
2022-11-16T08:40:06.250Z,50.62
2022-11-16T08:41:06.220Z,50.62
2022-11-16T08:42:06.207Z,50.62
2022-11-16T08:43:06.228Z,50.62
2022-11-16T08:44:06.185Z,56.25
2022-11-16T08:45:06.197Z,50.62
2022-11-16T08:46:06.161Z,56.25
2022-11-16T08:47:06.151Z,61.88
2022-11-16T08:48:06.175Z,56.25
2022-11-16T08:49:06.150Z,50.62
2022-11-16T08:51:37.056Z,50.62
2022-11-16T08:52:15.918Z,50.62
2022-11-16T08:53:15.923Z,56.25
2022-11-16T08:54:15.895Z,56.25
2022-11-16T08:55:15.885Z,50.62
2022-11-16T08:56:15.877Z,45.00
2022-11-16T08:57:15.862Z,50.62
2022-11-16T08:58:15.882Z,50.62
2022-11-16T08:59:15.841Z,50.62
2022-11-16T09:00:15.845Z,56.25
2022-11-16T09:01:15.930Z,56.25
2022-11-16T09:02:15.878Z,56.25
2022-11-16T09:03:15.805Z,56.25
2022-11-16T09:04:15.796Z,61.88
2022-11-16T09:05:15.773Z,56.25
2022-11-16T09:06:15.774Z,56.25
2022-11-16T09:07:15.821Z,56.25
2022-11-16T09:08:15.777Z,50.62
2022-11-16T09:09:15.729Z,56.25
2022-11-16T09:10:15.729Z,56.25
2022-11-16T09:11:15.873Z,61.88
2022-11-16T09:12:15.694Z,67.50
2022-11-16T09:52:55.124Z,112.50
2022-11-16T09:53:55.217Z,112.50
2022-11-16T09:54:55.083Z,118.12
2022-11-16T09:55:55.067Z,50.62
2022-11-16T09:56:55.058Z,129.38
2022-11-16T09:57:55.057Z,135.00
2022-11-16T09:58:55.049Z,146.25
2022-11-16T09:59:55.022Z,90.00
2022-11-16T10:00:55.053Z,157.50
2022-11-16T10:01:55.001Z,163.12
2022-11-16T10:02:55.007Z,56.25
2022-11-16T10:03:54.995Z,174.38
2022-11-16T10:04:58.225Z,180.00
2022-11-16T10:05:54.970Z,157.50
2022-11-16T10:06:54.998Z,78.75
2022-11-16T10:07:54.938Z,56.25
2022-11-16T10:08:54.938Z,157.50
2022-11-16T10:09:55.027Z,174.38
2022-11-16T10:10:54.902Z,168.75
2022-11-16T10:11:54.883Z,168.75
2022-11-16T10:12:54.884Z,168.75
2022-11-16T10:13:56.259Z,174.38
2022-11-16T10:14:54.865Z,168.75
2022-11-16T10:15:54.838Z,168.75
2022-11-16T10:16:54.831Z,174.38
2022-11-16T10:17:54.840Z,174.38
2022-11-16T10:18:54.809Z,174.38
2022-11-16T10:19:54.805Z,174.38
2022-11-16T10:20:54.790Z,174.38
2022-11-16T10:21:54.778Z,174.38
2022-11-16T10:22:54.781Z,45.00
2022-11-16T10:23:54.762Z,56.25
2022-11-16T10:24:54.749Z,56.25
2022-11-16T10:25:54.855Z,180.00
2022-11-16T10:26:54.725Z,180.00
2022-11-16T10:27:54.719Z,174.38
2022-11-16T10:28:54.695Z,174.38
2022-11-16T10:29:54.681Z,168.75
2022-11-16T10:30:54.674Z,168.75
2022-11-16T10:31:54.664Z,168.75
2022-11-16T10:32:54.665Z,168.75
2022-11-16T10:33:54.638Z,168.75
2022-11-16T10:34:54.650Z,168.75
2022-11-16T10:35:54.620Z,168.75
2022-11-16T10:36:54.615Z,39.38
2022-11-16T10:37:54.633Z,67.50
2022-11-16T10:38:54.586Z,174.38
2022-11-16T10:39:54.580Z,45.00
2022-11-16T10:40:54.555Z,50.62
2022-11-16T10:41:54.662Z,45.00
2022-11-16T10:42:54.554Z,56.25
2022-11-16T10:43:54.524Z,180.00
2022-11-16T10:44:54.510Z,168.75
2022-11-16T10:45:54.507Z,39.38
2022-11-16T10:46:54.488Z,39.38
2022-11-16T10:47:54.490Z,39.38
2022-11-16T10:48:54.463Z,56.25
2022-11-16T10:49:54.447Z,101.25
2022-11-16T10:50:54.454Z,67.50
2022-11-16T10:51:54.425Z,174.38
2022-11-16T10:52:54.433Z,90.00
2022-11-16T10:53:54.411Z,185.62
2022-11-16T10:54:54.400Z,56.25
2022-11-16T10:55:54.380Z,163.12
2022-11-16T10:56:54.379Z,67.50
2022-11-16T10:57:54.504Z,56.25
2022-11-16T10:58:54.351Z,174.38
2022-11-16T10:59:54.334Z,95.62
2022-11-16T11:00:54.377Z,56.25
2022-11-16T11:01:54.317Z,61.88
2022-11-16T11:02:54.312Z,140.62
2022-11-16T11:03:54.296Z,56.25
2022-11-16T11:04:54.280Z,50.62
2022-11-16T11:05:54.266Z,168.75
2022-11-16T11:06:54.305Z,61.88
2022-11-16T11:07:59.470Z,56.25
2022-11-16T11:08:55.231Z,61.88
2022-11-16T11:09:54.227Z,95.62
2022-11-16T11:10:54.222Z,157.50
2022-11-16T11:11:54.195Z,84.38
2022-11-16T11:12:54.203Z,202.50
2022-11-16T11:13:54.296Z,185.62
2022-11-16T11:14:54.169Z,90.00
2022-11-16T11:15:54.161Z,157.50
2022-11-16T11:16:54.153Z,135.00
2022-11-16T11:17:54.148Z,39.38
2022-11-16T11:18:54.134Z,39.38
2022-11-16T11:19:54.109Z,39.38
2022-11-16T11:20:54.124Z,39.38
2022-11-16T11:21:54.093Z,146.25
2022-11-16T11:22:54.086Z,168.75
2022-11-16T11:23:54.063Z,168.75
2022-11-16T11:24:54.067Z,174.38
2022-11-16T11:25:54.043Z,174.38
2022-11-16T11:26:54.029Z,101.25
2022-11-16T11:27:54.053Z,168.75
2022-11-16T11:28:54.013Z,168.75
2022-11-16T11:29:54.019Z,168.75
2022-11-16T11:30:53.987Z,168.75
2022-11-16T11:31:53.977Z,163.12
2022-11-16T11:32:53.976Z,168.75
2022-11-16T11:33:53.944Z,168.75
2022-11-16T11:34:53.964Z,56.25
2022-11-16T11:35:53.941Z,39.38
2022-11-16T11:36:53.925Z,45.00
2022-11-16T11:37:53.926Z,56.25
2022-11-16T11:39:14.947Z,168.75
2022-11-16T11:41:03.701Z,174.38
2022-11-16T11:42:03.682Z,180.00
2022-11-16T11:43:03.687Z,56.25
2022-11-16T11:44:03.662Z,45.00
2022-11-16T11:45:03.768Z,168.75
2022-11-16T11:46:03.664Z,163.12
2022-11-16T11:47:55.655Z,168.75
2022-11-16T11:48:04.632Z,168.75
2022-11-16T11:49:03.619Z,163.12
2022-11-16T11:50:03.603Z,151.88
2022-11-16T11:51:03.585Z,157.50
2022-11-16T11:52:03.605Z,146.25
2022-11-16T11:53:03.575Z,140.62
2022-11-16T11:54:03.552Z,140.62
2022-11-16T11:55:03.616Z,135.00
2022-11-16T11:56:04.552Z,135.00
2022-11-16T11:57:03.654Z,135.00
2022-11-16T11:58:03.541Z,151.88
2022-11-16T11:59:03.501Z,146.25
2022-11-16T12:00:03.540Z,146.25
2022-11-16T12:01:03.493Z,146.25
2022-11-16T12:02:03.470Z,151.88
2022-11-16T12:03:03.550Z,45.00
2022-11-16T12:04:03.460Z,90.00
2022-11-16T12:05:03.438Z,129.38
2022-11-16T12:06:03.429Z,146.25
2022-11-16T12:07:03.506Z,151.88
2022-11-16T12:08:03.411Z,151.88
2022-11-16T12:09:03.402Z,157.50
2022-11-16T12:10:03.387Z,168.75
2022-11-16T12:11:03.368Z,168.75
2022-11-16T12:12:03.359Z,163.12
2022-11-16T12:13:03.388Z,151.88
2022-11-16T12:14:03.348Z,146.25
2022-11-16T12:15:03.328Z,50.62
2022-11-16T12:16:03.409Z,118.12
2022-11-16T12:17:03.309Z,45.00
2022-11-16T12:18:03.306Z,39.38
2022-11-16T12:19:03.276Z,45.00
2022-11-16T12:20:03.290Z,45.00
2022-11-16T12:21:03.255Z,39.38
2022-11-16T12:22:03.241Z,33.75
2022-11-16T12:23:04.419Z,33.75
2022-11-16T12:24:03.223Z,33.75
2022-11-16T12:25:03.213Z,33.75
2022-11-16T12:26:03.201Z,39.38
2022-11-16T12:27:03.187Z,39.38
2022-11-16T12:28:03.203Z,33.75
2022-11-16T12:29:03.190Z,33.75
2022-11-16T12:30:03.156Z,33.75
2022-11-16T12:31:03.143Z,39.38
2022-11-16T12:32:03.140Z,50.62
2022-11-16T12:33:03.235Z,50.62
2022-11-16T12:34:03.135Z,56.25
2022-11-16T12:35:03.093Z,50.62
2022-11-16T12:36:03.088Z,50.62
2022-11-16T12:37:03.078Z,78.75
2022-11-16T12:38:03.059Z,61.88
2022-11-16T12:39:03.058Z,56.25
2022-11-16T12:40:03.059Z,56.25
2022-11-16T12:41:03.029Z,67.50
2022-11-16T12:42:03.022Z,118.12
2022-11-16T12:43:03.025Z,118.12
2022-11-16T12:44:03.019Z,50.62
2022-11-16T12:45:02.987Z,61.88
2022-11-16T12:46:02.985Z,67.50
2022-11-16T12:47:02.990Z,33.75
2022-11-16T12:48:02.965Z,33.75
2022-11-16T12:49:03.082Z,33.75
2022-11-16T12:50:02.930Z,50.62
2022-11-16T12:51:02.916Z,33.75
2022-11-16T12:52:02.905Z,39.38
2022-11-16T12:53:02.891Z,45.00
2022-11-16T12:54:02.889Z,45.00
2022-11-16T12:55:30.705Z,50.62
2022-11-16T12:56:03.857Z,101.25
2022-11-16T12:57:02.860Z,50.62
2022-11-16T12:58:02.829Z,50.62
2022-11-16T12:59:02.824Z,61.88
2022-11-16T13:00:02.823Z,67.50
2022-11-16T13:01:02.964Z,135.00
2022-11-16T13:02:02.796Z,163.12
2022-11-16T13:03:02.784Z,151.88
2022-11-16T13:04:02.772Z,146.25
2022-11-16T13:05:02.791Z,146.25
2022-11-16T13:06:02.766Z,151.88
2022-11-16T13:07:07.851Z,135.00
2022-11-16T13:08:03.732Z,140.62
2022-11-16T13:09:02.711Z,78.75
2022-11-16T13:10:02.727Z,73.12
2022-11-16T13:11:02.702Z,67.50
2022-11-16T13:12:02.687Z,84.38
2022-11-16T13:13:34.828Z,118.12
2022-11-16T13:14:03.655Z,67.50
2022-11-16T13:15:02.658Z,73.12
2022-11-16T13:16:02.648Z,45.00
2022-11-16T13:17:02.618Z,61.88
2022-11-16T13:18:02.606Z,45.00
2022-11-16T13:19:02.596Z,61.88
2022-11-16T13:20:02.659Z,56.25
2022-11-16T13:21:02.618Z,45.00
2022-11-16T13:22:02.570Z,45.00
2022-11-16T13:23:02.548Z,95.62
2022-11-16T13:24:02.541Z,129.38
2022-11-16T13:25:02.551Z,112.50
2022-11-16T13:26:02.515Z,56.25
2022-11-16T13:27:02.508Z,50.62
2022-11-16T13:28:02.492Z,39.38
2022-11-16T13:29:02.489Z,39.38
2022-11-16T13:30:02.492Z,39.38
2022-11-16T13:31:02.469Z,33.75
2022-11-16T13:32:02.457Z,33.75
2022-11-16T13:33:02.447Z,33.75
2022-11-16T13:34:02.430Z,39.38
2022-11-16T13:35:02.433Z,39.38
2022-11-16T13:36:02.404Z,33.75
2022-11-16T13:37:02.420Z,78.75
2022-11-16T13:38:02.488Z,118.12
2022-11-16T13:39:02.367Z,118.12
2022-11-16T13:40:02.382Z,112.50
2022-11-16T13:41:02.351Z,118.12
2022-11-16T13:42:02.343Z,118.12
2022-11-16T13:43:02.321Z,39.38
2022-11-16T13:44:02.312Z,33.75
2022-11-16T13:45:02.300Z,28.12
2022-11-16T13:46:02.311Z,33.75
2022-11-16T13:47:02.302Z,39.38
2022-11-16T13:48:02.264Z,78.75
2022-11-16T13:49:02.294Z,39.38
2022-11-16T13:50:02.242Z,106.88
2022-11-16T13:51:02.260Z,106.88
2022-11-16T13:52:21.450Z,101.25
2022-11-16T13:54:44.141Z,39.38
2022-11-16T13:55:03.194Z,33.75
2022-11-16T13:56:02.199Z,28.12
2022-11-16T13:57:02.168Z,22.50
2022-11-16T13:58:02.149Z,22.50
2022-11-16T13:59:02.147Z,16.88
2022-11-16T14:00:02.125Z,16.88
2022-11-16T14:01:02.202Z,16.88
2022-11-16T14:02:02.109Z,22.50
2022-11-16T14:03:02.099Z,22.50
2022-11-16T14:04:02.147Z,22.50
2022-11-16T14:05:02.068Z,16.88
2022-11-16T14:06:02.086Z,16.88
2022-11-16T14:07:02.123Z,16.88
2022-11-16T14:08:02.040Z,11.25
2022-11-16T14:09:02.140Z,11.25
2022-11-16T14:10:02.026Z,5.62
2022-11-16T14:11:02.025Z,5.62
2022-11-16T14:12:02.002Z,5.62
2022-11-16T14:13:01.984Z,11.25
2022-11-16T14:14:01.979Z,11.25
2022-11-16T14:15:03.766Z,11.25
2022-11-16T14:16:01.976Z,11.25
2022-11-16T14:17:01.949Z,11.25
2022-11-16T14:18:01.930Z,11.25
2022-11-16T14:19:01.939Z,11.25
2022-11-16T14:20:01.914Z,11.25
2022-11-16T14:21:01.917Z,11.25
2022-11-16T14:22:01.897Z,11.25
2022-11-16T14:23:01.950Z,11.25
2022-11-16T14:24:01.876Z,11.25
2022-11-16T14:25:02.001Z,11.25
2022-11-16T14:26:01.844Z,11.25
2022-11-16T14:27:01.833Z,11.25
2022-11-16T14:28:01.823Z,11.25
2022-11-16T14:29:01.818Z,11.25
2022-11-16T14:30:01.872Z,11.25
2022-11-16T14:31:01.792Z,11.25
2022-11-16T14:32:01.782Z,11.25
2022-11-16T14:33:01.771Z,16.88
2022-11-16T14:34:01.758Z,16.88
2022-11-16T14:35:01.761Z,11.25
2022-11-16T14:36:01.751Z,11.25
2022-11-16T14:37:01.733Z,11.25
2022-11-16T14:38:01.707Z,11.25
2022-11-16T14:39:01.706Z,11.25
2022-11-16T14:40:01.684Z,11.25
2022-11-16T14:41:01.712Z,11.25
2022-11-16T14:42:01.669Z,11.25
2022-11-16T14:43:15.846Z,11.25
2022-11-16T14:44:02.636Z,11.25
2022-11-16T14:45:01.648Z,11.25
2022-11-16T14:46:01.636Z,11.25
2022-11-16T14:47:01.605Z,11.25
2022-11-16T14:48:01.595Z,11.25
2022-11-16T14:49:01.586Z,11.25
2022-11-16T14:50:01.572Z,11.25
2022-11-16T14:51:01.581Z,11.25
2022-11-16T14:52:01.557Z,11.25
2022-11-16T14:53:01.541Z,5.62
2022-11-16T14:54:01.525Z,5.62
2022-11-16T14:55:01.520Z,5.62
2022-11-16T14:56:01.537Z,5.62
2022-11-16T14:57:01.621Z,5.62
2022-11-16T14:58:01.479Z,5.62
2022-11-16T14:59:01.484Z,5.62
2022-11-16T15:00:01.483Z,5.62
2022-11-16T15:01:01.491Z,5.62
2022-11-16T15:02:01.433Z,5.62
2022-11-16T15:03:02.956Z,5.62
2022-11-16T15:04:01.485Z,5.62
2022-11-16T15:05:01.414Z,5.62
2022-11-16T15:06:01.408Z,5.62
2022-11-16T15:07:01.462Z,5.62
2022-11-16T15:08:01.382Z,5.62
2022-11-16T15:09:01.372Z,5.62
2022-11-16T15:10:01.346Z,5.62
2022-11-16T15:11:01.351Z,5.62
2022-11-16T15:12:01.329Z,0.00
2022-11-16T15:13:01.433Z,0.00
2022-11-16T15:14:01.306Z,0.00
2022-11-16T15:15:01.301Z,0.00
2022-11-16T15:16:01.302Z,0.00
2022-11-16T15:17:01.264Z,0.00
2022-11-16T15:18:01.275Z,0.00
2022-11-16T15:19:01.280Z,0.00
2022-11-16T15:20:01.277Z,0.00
2022-11-16T15:21:01.224Z,0.00
2022-11-16T15:22:01.233Z,0.00
2022-11-16T15:23:01.201Z,0.00
2022-11-16T15:24:28.957Z,0.00
2022-11-16T15:25:02.187Z,0.00
2022-11-16T15:26:01.172Z,0.00
2022-11-16T15:27:01.169Z,0.00
2022-11-16T15:28:01.144Z,0.00
2022-11-16T15:29:01.243Z,0.00
2022-11-16T15:30:01.135Z,0.00
2022-11-16T15:31:01.121Z,0.00
2022-11-16T15:32:01.112Z,0.00
2022-11-16T15:33:01.086Z,0.00
2022-11-16T15:34:01.073Z,0.00
2022-11-16T15:35:05.123Z,0.00
2022-11-16T15:36:01.064Z,0.00
2022-11-16T15:37:01.058Z,0.00
2022-11-16T15:38:01.038Z,0.00
2022-11-16T15:39:01.038Z,0.00
2022-11-16T15:40:01.936Z,0.00
2022-11-16T15:41:01.008Z,0.00
2022-11-16T15:42:04.026Z,0.00
2022-11-16T15:43:00.982Z,0.00
2022-11-16T15:44:14.187Z,0.00
2022-11-16T15:45:02.071Z,0.00
2022-11-16T15:46:00.945Z,0.00
2022-11-16T15:47:00.949Z,0.00
2022-11-16T15:48:00.920Z,0.00
2022-11-16T15:49:00.915Z,0.00
2022-11-16T15:50:00.898Z,0.00
2022-11-16T15:51:04.688Z,0.00
2022-11-16T15:52:00.895Z,0.00
2022-11-16T15:53:00.890Z,0.00
2022-11-16T15:54:00.859Z,0.00
2022-11-16T15:55:00.843Z,0.00
2022-11-16T15:56:00.909Z,0.00
2022-11-16T15:57:00.837Z,0.00
2022-11-16T15:58:00.841Z,0.00
2022-11-16T15:59:00.795Z,0.00
2022-11-16T16:00:00.788Z,0.00
2022-11-16T16:01:00.893Z,0.00
2022-11-16T16:02:00.801Z,0.00
2022-11-16T16:03:00.818Z,0.00
2022-11-16T16:04:00.863Z,0.00
2022-11-16T16:05:00.726Z,0.00
2022-11-16T16:06:00.716Z,0.00
2022-11-16T16:07:00.826Z,0.00
2022-11-16T16:08:00.696Z,0.00
2022-11-16T16:09:00.695Z,0.00
2022-11-16T16:10:00.673Z,0.00
2022-11-16T16:11:00.669Z,0.00
2022-11-16T16:12:00.667Z,0.00
2022-11-16T16:13:00.641Z,0.00
2022-11-16T16:14:00.628Z,0.00
2022-11-16T16:15:00.627Z,0.00
2022-11-16T16:16:00.610Z,0.00
2022-11-16T16:17:00.742Z,0.00
2022-11-16T16:18:00.587Z,0.00
2022-11-16T16:19:04.979Z,0.00
2022-11-16T16:20:01.587Z,0.00
2022-11-16T16:21:00.551Z,0.00
2022-11-16T16:22:00.550Z,0.00
2022-11-16T16:23:00.524Z,0.00
2022-11-16T16:24:00.510Z,0.00
2022-11-16T16:25:00.523Z,0.00
2022-11-16T16:26:00.496Z,0.00
2022-11-16T16:27:00.500Z,0.00
2022-11-16T16:28:00.477Z,0.00
2022-11-16T16:29:00.468Z,0.00
2022-11-16T16:30:00.451Z,0.00
2022-11-16T16:31:00.437Z,0.00
2022-11-16T16:32:00.433Z,0.00
2022-11-16T16:33:00.532Z,0.00
2022-11-16T16:34:00.407Z,0.00
2022-11-16T16:35:00.394Z,0.00
2022-11-16T16:36:00.377Z,0.00
2022-11-16T16:37:00.387Z,0.00
2022-11-16T16:38:00.355Z,0.00
2022-11-16T16:39:00.356Z,0.00
2022-11-16T16:40:00.403Z,0.00
2022-11-16T16:41:00.325Z,0.00
2022-11-16T16:42:00.337Z,0.00
2022-11-16T16:43:00.308Z,0.00
2022-11-16T16:44:00.287Z,0.00
2022-11-16T16:45:00.311Z,0.00
2022-11-16T16:46:00.264Z,0.00
2022-11-16T16:47:00.277Z,0.00
2022-11-16T16:48:00.250Z,0.00
2022-11-16T16:49:00.330Z,0.00
2022-11-16T16:50:00.219Z,0.00
2022-11-16T16:51:00.227Z,0.00
2022-11-16T16:52:00.338Z,0.00
2022-11-16T16:53:00.186Z,0.00
2022-11-16T16:54:00.172Z,0.00
2022-11-16T16:55:00.178Z,0.00
2022-11-16T16:56:00.164Z,0.00
2022-11-16T16:57:00.156Z,0.00
2022-11-16T16:58:00.143Z,0.00